createdAt,value
2022-10-22T00:03:28.423Z,94255.66
2022-10-22T00:08:31.759Z,94240.00
2022-10-22T00:13:33.717Z,94243.09
2022-10-22T00:18:36.522Z,94245.25
2022-10-22T00:23:42.587Z,94243.00
2022-10-22T00:28:44.774Z,94246.91
2022-10-22T00:33:48.143Z,94244.66
2022-10-22T00:38:50.053Z,94238.09
2022-10-22T00:44:03.801Z,94236.63
2022-10-22T00:49:05.845Z,94223.47
2022-10-22T00:54:09.030Z,94222.13
2022-10-22T00:59:12.583Z,94223.97
2022-10-22T01:04:14.627Z,94223.53
2022-10-22T01:09:37.237Z,94208.03
2022-10-22T01:15:10.395Z,94211.00
2022-10-22T01:20:43.053Z,94211.91
2022-10-22T01:26:15.959Z,94203.75
2022-10-22T01:31:18.719Z,94207.13
2022-10-22T01:36:21.189Z,94203.22
2022-10-22T01:41:23.293Z,94204.78
2022-10-22T01:46:27.097Z,94209.09
2022-10-22T01:51:52.626Z,94209.69
2022-10-22T01:57:08.039Z,94206.59
2022-10-22T02:02:16.970Z,94209.59
2022-10-22T02:07:21.799Z,94211.75
2022-10-22T02:12:24.955Z,94213.75
2022-10-22T02:17:28.018Z,94205.34
2022-10-22T02:22:30.305Z,94204.13
2022-10-22T02:27:45.327Z,94199.22
2022-10-22T02:32:54.821Z,94198.00
2022-10-22T02:37:58.230Z,94195.69
2022-10-22T02:43:00.305Z,94188.75
2022-10-22T02:48:03.168Z,94187.88
2022-10-22T02:53:05.469Z,94170.56
2022-10-22T02:58:07.515Z,94177.03
2022-10-22T03:03:09.562Z,94177.63
2022-10-22T03:08:11.788Z,94180.53
2022-10-22T03:13:13.816Z,94179.59
2022-10-22T03:18:16.092Z,94184.41
2022-10-22T03:23:20.179Z,94173.34
2022-10-22T03:28:22.170Z,94188.19
2022-10-22T03:33:24.131Z,94183.50
2022-10-22T03:38:26.321Z,94177.38
2022-10-22T03:43:28.322Z,94176.72
2022-10-22T03:48:30.807Z,94173.56
2022-10-22T03:53:32.810Z,94175.03
2022-10-22T03:58:35.090Z,94170.94
2022-10-22T04:03:37.859Z,94180.78
2022-10-22T04:08:41.022Z,94188.03
2022-10-22T04:13:43.675Z,94194.97
2022-10-22T04:18:47.600Z,94201.22
2022-10-22T04:23:51.667Z,94207.69
2022-10-22T04:28:53.865Z,94218.59
2022-10-22T04:33:57.435Z,94212.34
2022-10-22T04:39:01.227Z,94218.53
2022-10-22T04:44:04.217Z,94221.53
2022-10-22T04:49:07.049Z,94225.56
2022-10-22T04:54:09.083Z,94230.03
2022-10-22T04:59:13.023Z,94237.84
2022-10-22T05:04:17.687Z,94223.00
2022-10-22T05:09:21.219Z,94229.59
2022-10-22T05:14:25.356Z,94228.59
2022-10-22T05:19:32.264Z,94224.00
2022-10-22T05:24:35.450Z,94225.66
2022-10-22T05:29:37.568Z,94227.69
2022-10-22T05:34:39.589Z,94228.31
2022-10-22T05:39:41.922Z,94226.22
2022-10-22T05:44:43.816Z,94231.75
2022-10-22T05:49:45.812Z,94234.31
2022-10-22T05:54:47.864Z,94234.31
2022-10-22T05:59:49.889Z,94235.22
2022-10-22T06:04:52.029Z,94223.84
2022-10-22T06:09:54.292Z,94228.06
2022-10-22T06:14:56.464Z,94235.19
2022-10-22T06:19:58.842Z,94243.56
2022-10-22T06:25:00.902Z,94250.69
2022-10-22T06:30:03.223Z,94247.00
2022-10-22T06:35:06.960Z,94243.09
2022-10-22T06:40:12.487Z,94233.94
2022-10-22T06:45:14.865Z,94242.31
2022-10-22T06:50:17.013Z,94240.97
2022-10-22T06:55:19.380Z,94251.47
2022-10-22T07:00:21.744Z,94255.25
2022-10-22T07:05:23.925Z,94234.44
2022-10-22T07:10:29.862Z,94252.94
2022-10-22T07:15:32.826Z,94259.44
2022-10-22T07:20:34.766Z,94269.25
2022-10-22T07:25:36.795Z,94268.41
2022-10-22T07:30:40.406Z,94274.78
2022-10-22T07:35:42.805Z,94271.84
2022-10-22T07:40:44.799Z,94277.56
2022-10-22T07:45:46.878Z,94277.88
2022-10-22T07:50:51.063Z,94296.28
2022-10-22T07:55:53.844Z,94297.06
2022-10-22T08:01:12.434Z,94305.31
2022-10-22T08:06:21.675Z,94301.66
2022-10-22T08:11:23.996Z,94311.75
2022-10-22T08:16:26.112Z,94307.91
2022-10-22T08:21:41.612Z,94311.19
2022-10-22T08:27:03.465Z,94330.38
2022-10-22T08:37:39.620Z,94326.31
2022-10-22T08:43:06.994Z,94317.16
2022-10-22T08:48:12.355Z,94309.53
2022-10-22T08:53:18.123Z,94305.69
2022-10-22T08:58:34.341Z,94285.41
2022-10-22T09:03:50.311Z,94302.78
2022-10-22T09:08:53.437Z,94288.41
2022-10-22T09:13:57.480Z,94284.91
2022-10-22T09:19:17.739Z,94289.91
2022-10-22T09:24:32.878Z,94286.19
2022-10-22T09:29:35.447Z,94280.06
2022-10-22T09:34:37.888Z,94281.50
2022-10-22T09:39:48.361Z,94282.31
2022-10-22T09:44:58.513Z,94282.31
2022-10-22T09:50:29.154Z,94265.97
2022-10-22T09:55:31.308Z,94262.91
2022-10-22T10:00:33.553Z,94274.41
2022-10-22T10:05:37.834Z,94273.59
2022-10-22T10:10:46.236Z,94274.06
2022-10-22T10:16:10.612Z,94268.88
2022-10-22T10:21:30.712Z,94255.53
2022-10-22T10:27:00.502Z,94252.53
2022-10-22T10:32:08.084Z,94242.16
2022-10-22T10:37:09.970Z,94250.03
2022-10-22T10:42:32.188Z,94241.28
2022-10-22T10:47:52.771Z,94241.53
2022-10-22T10:53:01.103Z,94225.16
2022-10-22T10:58:13.819Z,94217.53
2022-10-22T11:03:35.174Z,94211.53
2022-10-22T11:08:42.276Z,94210.78
2022-10-22T11:14:07.079Z,94216.06
2022-10-22T11:19:22.629Z,94211.66
2022-10-22T11:24:58.818Z,94196.22
2022-10-22T11:30:14.696Z,94180.59
2022-10-22T11:35:25.585Z,94176.75
2022-10-22T11:40:38.876Z,94164.66
2022-10-22T11:45:43.025Z,94150.16
2022-10-22T11:51:03.055Z,94134.97
2022-10-22T11:56:08.506Z,94123.41
2022-10-22T12:01:10.595Z,94114.09
2022-10-22T12:06:21.253Z,94106.81
2022-10-22T12:11:44.825Z,94084.81
2022-10-22T12:16:56.694Z,94079.16
2022-10-22T12:22:11.760Z,94060.28
2022-10-22T12:27:24.440Z,94057.25
2022-10-22T12:32:38.137Z,94042.97
2022-10-22T12:37:40.879Z,94032.59
2022-10-22T12:43:20.488Z,94021.81
2022-10-22T12:48:25.206Z,94015.63
2022-10-22T12:53:50.911Z,94002.84
2022-10-22T12:58:57.762Z,93998.97
2022-10-22T13:04:28.750Z,93998.59
2022-10-22T13:09:40.872Z,93994.38
2022-10-22T13:14:46.251Z,93988.94
2022-10-22T13:20:05.590Z,93990.88
2022-10-22T13:25:17.370Z,93971.16
2022-10-22T13:30:25.143Z,93966.13
2022-10-22T13:35:30.085Z,93945.22
2022-10-22T13:40:32.199Z,93926.66
2022-10-22T13:45:34.065Z,93902.66
2022-10-22T13:50:36.205Z,93911.56
2022-10-22T13:55:38.158Z,93915.41
2022-10-22T14:00:42.189Z,93890.28
2022-10-22T14:05:46.419Z,93874.03
2022-10-22T14:10:48.748Z,93874.81
2022-10-22T14:15:52.265Z,93855.13
2022-10-22T14:21:00.141Z,93843.13
2022-10-22T14:26:03.277Z,93837.31
2022-10-22T14:31:05.428Z,93830.78
2022-10-22T14:36:07.809Z,93828.47
2022-10-22T14:41:29.199Z,93842.38
2022-10-22T14:46:31.769Z,93819.19
2022-10-22T14:51:34.252Z,93809.16
2022-10-22T15:01:40.863Z,93794.03
2022-10-22T15:06:43.439Z,93789.75
2022-10-22T15:11:45.580Z,93775.88
2022-10-22T15:16:47.871Z,93757.63
2022-10-22T15:21:50.355Z,93747.94
2022-10-22T15:26:54.365Z,93740.94
2022-10-22T15:32:01.114Z,93731.28
2022-10-22T15:37:07.139Z,93729.78
2022-10-22T15:42:10.328Z,93729.38
2022-10-22T15:47:12.900Z,93735.53
2022-10-22T15:52:16.403Z,93720.81
2022-10-22T15:57:18.690Z,93724.97
2022-10-22T16:02:21.231Z,93722.66
2022-10-22T16:07:24.816Z,93725.09
2022-10-22T16:12:27.348Z,93726.59
2022-10-22T16:17:30.226Z,93734.69
2022-10-22T16:22:33.876Z,93725.34
2022-10-22T16:27:36.290Z,93723.47
2022-10-22T16:32:39.235Z,93721.13
2022-10-22T16:37:42.332Z,93709.91
2022-10-22T16:42:45.073Z,93704.19
2022-10-22T16:47:49.084Z,93690.66
2022-10-22T16:52:51.312Z,93692.59
2022-10-22T16:57:53.866Z,93700.72
2022-10-22T17:02:56.670Z,93684.53
2022-10-22T17:07:58.853Z,93708.09
2022-10-22T17:13:01.251Z,93702.34
2022-10-22T17:18:04.396Z,93740.66
2022-10-22T17:23:06.400Z,93887.16
2022-10-22T17:28:09.296Z,93908.25
2022-10-22T17:33:11.559Z,93921.56
2022-10-22T17:38:14.048Z,93949.97
2022-10-22T17:43:16.692Z,93945.38
2022-10-22T17:48:19.007Z,93978.59
2022-10-22T17:53:21.041Z,93996.91
2022-10-22T17:58:23.513Z,93990.19
2022-10-22T18:03:28.012Z,94014.53
2022-10-22T18:08:30.225Z,94037.41
2022-10-22T18:13:41.026Z,94040.91
2022-10-22T18:18:46.726Z,94072.00
2022-10-22T18:23:49.288Z,94075.25
2022-10-22T18:28:52.636Z,94061.91
2022-10-22T18:33:55.858Z,94044.25
2022-10-22T18:39:00.084Z,94043.66
2022-10-22T18:44:05.018Z,94083.66
2022-10-22T18:49:08.264Z,94097.53
2022-10-22T18:54:22.522Z,94073.59
2022-10-22T18:59:27.117Z,94046.22
2022-10-22T19:04:33.412Z,94025.22
2022-10-22T19:09:35.825Z,94027.75
2022-10-22T19:14:38.166Z,94039.16
2022-10-22T19:19:40.640Z,94036.56
2022-10-22T19:24:44.092Z,94040.63
2022-10-22T19:29:46.727Z,94027.22
2022-10-22T19:34:49.039Z,94037.78
2022-10-22T19:39:51.127Z,94035.88
2022-10-22T19:44:53.357Z,94034.31
2022-10-22T19:49:55.644Z,94032.50
2022-10-22T19:54:58.303Z,94030.91
2022-10-22T20:00:00.373Z,94026.84
2022-10-22T20:05:03.084Z,94025.72
2022-10-22T20:10:05.724Z,94044.91
2022-10-22T20:15:08.646Z,94031.16
2022-10-22T20:20:10.789Z,94047.25
2022-10-22T20:25:13.039Z,94029.25
2022-10-22T20:35:18.984Z,94024.16
2022-10-22T20:40:21.072Z,94012.72
2022-10-22T20:45:23.478Z,94020.50
2022-10-22T20:50:31.450Z,94035.41
2022-10-22T20:55:33.674Z,94035.41
2022-10-22T21:00:36.382Z,94010.97
2022-10-22T21:05:38.897Z,94025.47
2022-10-22T21:10:41.097Z,94014.34
2022-10-22T21:15:43.154Z,94018.94
2022-10-22T21:20:45.405Z,94012.13
2022-10-22T21:25:57.387Z,94036.59
2022-10-22T21:30:59.422Z,94032.03
2022-10-22T21:36:01.647Z,94036.69
2022-10-22T21:41:08.235Z,94038.44
2022-10-22T21:46:13.258Z,94046.47
2022-10-22T21:51:17.703Z,94045.00
2022-10-22T21:56:22.447Z,94058.00
2022-10-22T22:01:24.670Z,94047.25
2022-10-22T22:06:29.589Z,94049.94
2022-10-22T22:11:34.353Z,94055.66
2022-10-22T22:16:36.608Z,94048.38
2022-10-22T22:21:40.142Z,94024.84
2022-10-22T22:26:42.267Z,94019.00
2022-10-22T22:31:46.087Z,94013.53
2022-10-22T22:36:49.507Z,94020.81
2022-10-22T22:41:52.120Z,94019.63
2022-10-22T22:46:54.069Z,94027.13
2022-10-22T22:51:56.437Z,94028.66
2022-10-22T22:56:58.501Z,94010.31
2022-10-22T23:02:00.486Z,94002.06
2022-10-22T23:07:02.394Z,93988.72
2022-10-22T23:12:04.634Z,93989.78
2022-10-22T23:17:06.844Z,93986.19
2022-10-22T23:22:09.095Z,93975.63
2022-10-22T23:27:12.043Z,93988.34
2022-10-22T23:32:17.104Z,93965.34
2022-10-22T23:37:19.224Z,93977.97
2022-10-22T23:42:21.390Z,93953.38
2022-10-22T23:47:23.517Z,93957.22
2022-10-22T23:52:25.692Z,93947.19
2022-10-22T23:57:28.132Z,93952.41
